createdAt,value
2018-11-04T00:00:55.134Z,10.50
2018-11-04T00:03:25.288Z,10.43
2018-11-04T00:05:55.221Z,10.50
2018-11-04T00:08:25.122Z,10.56
2018-11-04T00:10:55.182Z,10.48
2018-11-04T00:13:25.569Z,10.39
2018-11-04T00:15:55.491Z,10.41
2018-11-04T00:18:25.496Z,10.37
2018-11-04T00:20:55.320Z,10.39
2018-11-04T00:23:25.364Z,10.42
2018-11-04T00:25:55.683Z,10.37
2018-11-04T00:28:25.483Z,10.33
2018-11-04T00:30:55.277Z,10.40
2018-11-04T00:33:25.143Z,10.40
2018-11-04T00:35:54.981Z,10.45
2018-11-04T00:38:24.802Z,10.46
2018-11-04T00:40:55.590Z,10.53
2018-11-04T00:43:25.389Z,10.39
2018-11-04T00:45:55.249Z,10.41
2018-11-04T00:48:25.209Z,10.48
2018-11-04T00:50:54.938Z,10.50
2018-11-04T00:53:24.864Z,10.44
2018-11-04T00:55:55.328Z,10.38
2018-11-04T00:58:26.211Z,10.34
2018-11-04T01:00:56.151Z,10.39
2018-11-04T01:03:26.019Z,10.42
2018-11-04T01:05:55.935Z,10.50
2018-11-04T01:08:26.386Z,10.61
2018-11-04T01:10:56.270Z,10.47
2018-11-04T01:13:26.192Z,10.38
2018-11-04T01:15:55.948Z,10.44
2018-11-04T01:18:28.011Z,10.41
2018-11-04T01:20:57.830Z,10.37
2018-11-04T01:23:27.679Z,10.40
2018-11-04T01:25:57.474Z,10.51
2018-11-04T01:28:27.234Z,10.46
2018-11-04T01:30:57.170Z,10.40
2018-11-04T01:33:27.161Z,10.39
2018-11-04T01:35:57.046Z,10.52
2018-11-04T01:38:26.926Z,10.50
2018-11-04T01:40:57.598Z,10.49
2018-11-04T01:43:27.405Z,10.55
2018-11-04T01:45:57.193Z,10.51
2018-11-04T01:48:27.102Z,10.48
2018-11-04T01:50:56.898Z,10.42
2018-11-04T01:53:26.788Z,10.39
2018-11-04T01:55:56.617Z,10.38
2018-11-04T01:58:26.428Z,10.39
2018-11-04T02:00:56.151Z,10.37
2018-11-04T02:03:26.046Z,10.40
2018-11-04T02:05:55.958Z,10.37
2018-11-04T02:08:25.850Z,10.40
2018-11-04T02:10:55.701Z,10.42
2018-11-04T02:13:25.448Z,10.47
2018-11-04T02:15:55.266Z,10.52
2018-11-04T02:18:29.522Z,10.41
2018-11-04T02:20:59.294Z,10.49
2018-11-04T02:23:29.069Z,10.42
2018-11-04T02:25:58.905Z,10.35
2018-11-04T02:28:28.722Z,10.42
2018-11-04T02:30:58.611Z,10.36
2018-11-04T02:33:28.339Z,10.36
2018-11-04T02:35:58.256Z,10.36
2018-11-04T02:38:28.268Z,10.40
2018-11-04T02:40:58.136Z,10.41
2018-11-04T02:43:27.931Z,10.35
2018-11-04T02:45:57.771Z,10.33
2018-11-04T02:48:27.554Z,10.35
2018-11-04T02:50:57.488Z,10.36
2018-11-04T02:53:27.306Z,10.33
2018-11-04T02:55:57.165Z,10.32
2018-11-04T02:58:26.977Z,10.36
2018-11-04T03:00:56.820Z,10.36
2018-11-04T03:03:26.610Z,10.49
2018-11-04T03:05:57.077Z,10.45
2018-11-04T03:08:26.828Z,10.41
2018-11-04T03:10:56.579Z,10.48
2018-11-04T03:13:26.322Z,10.53
2018-11-04T03:15:56.124Z,10.45
2018-11-04T03:18:25.953Z,10.48
2018-11-04T03:20:55.729Z,10.44
2018-11-04T03:23:25.502Z,10.47
2018-11-04T03:25:55.232Z,10.57
2018-11-04T03:28:25.053Z,10.63
2018-11-04T03:30:54.778Z,10.63
2018-11-04T03:33:24.654Z,10.53
2018-11-04T03:35:54.356Z,10.41
2018-11-04T03:38:24.089Z,10.42
2018-11-04T03:40:55.921Z,10.53
2018-11-04T03:43:25.746Z,10.59
2018-11-04T03:45:55.489Z,10.59
2018-11-04T03:48:25.261Z,10.59
2018-11-04T03:50:55.040Z,10.67
2018-11-04T03:53:24.851Z,10.70
2018-11-04T03:55:54.593Z,10.60
2018-11-04T03:58:24.413Z,10.70
2018-11-04T04:00:54.205Z,10.60
2018-11-04T04:03:23.981Z,10.59
2018-11-04T04:05:53.757Z,10.67
2018-11-04T04:08:23.563Z,10.57
2018-11-04T04:10:53.365Z,10.58
2018-11-04T04:13:23.171Z,10.60
2018-11-04T04:15:52.954Z,10.55
2018-11-04T04:18:22.744Z,10.55
2018-11-04T04:21:01.390Z,10.49
2018-11-04T04:23:31.145Z,10.51
2018-11-04T04:26:01.097Z,10.50
2018-11-04T04:28:31.090Z,10.46
2018-11-04T04:31:00.981Z,10.43
2018-11-04T04:33:30.828Z,10.38
2018-11-04T04:36:00.834Z,10.41
2018-11-04T04:38:30.578Z,10.44
2018-11-04T04:41:00.469Z,10.39
2018-11-04T04:43:31.148Z,10.39
2018-11-04T04:46:00.969Z,10.40
2018-11-04T04:48:30.852Z,10.39
2018-11-04T04:51:00.623Z,10.36
2018-11-04T04:53:30.532Z,10.37
2018-11-04T04:56:00.440Z,10.40
2018-11-04T04:58:30.278Z,10.38
2018-11-04T05:01:00.132Z,10.49
2018-11-04T05:03:29.925Z,10.43
2018-11-04T05:05:59.831Z,10.38
2018-11-04T05:08:29.592Z,10.42
2018-11-04T05:10:59.408Z,10.53
2018-11-04T05:13:29.224Z,9.77
2018-11-04T05:15:59.068Z,10.41
2018-11-04T05:18:28.963Z,10.39
2018-11-04T05:20:58.801Z,10.47
2018-11-04T05:23:28.632Z,10.45
2018-11-04T05:25:58.498Z,10.44
2018-11-04T05:28:28.309Z,10.43
2018-11-04T05:30:58.124Z,10.44
2018-11-04T05:33:27.909Z,10.39
2018-11-04T05:35:57.776Z,10.38
2018-11-04T05:38:27.593Z,10.35
2018-11-04T05:40:57.310Z,10.47
2018-11-04T05:43:27.082Z,10.56
2018-11-04T05:45:56.835Z,10.53
2018-11-04T05:48:26.575Z,10.48
2018-11-04T05:50:56.418Z,10.51
2018-11-04T05:53:26.262Z,10.63
2018-11-04T05:55:56.105Z,10.65
2018-11-04T05:58:25.997Z,10.74
2018-11-04T06:00:55.788Z,10.74
2018-11-04T06:03:25.533Z,10.63
2018-11-04T06:05:55.385Z,10.68
2018-11-04T06:08:25.271Z,10.76
2018-11-04T06:10:55.386Z,10.90
2018-11-04T06:13:25.141Z,10.87
2018-11-04T06:15:54.956Z,10.84
2018-11-04T06:18:24.688Z,10.87
2018-11-04T06:20:55.472Z,10.90
2018-11-04T06:23:25.274Z,10.92
2018-11-04T06:25:55.170Z,10.92
2018-11-04T06:28:24.977Z,11.05
2018-11-04T06:30:54.824Z,11.11
2018-11-04T06:33:24.836Z,11.01
2018-11-04T06:35:54.742Z,11.09
2018-11-04T06:38:24.535Z,11.22
2018-11-04T06:40:54.367Z,11.31
2018-11-04T06:43:24.065Z,11.34
2018-11-04T06:45:53.905Z,11.41
2018-11-04T06:48:23.834Z,11.33
2018-11-04T06:50:53.646Z,11.35
2018-11-04T06:53:24.071Z,11.25
2018-11-04T06:55:53.909Z,11.29
2018-11-04T06:58:23.739Z,11.28
2018-11-04T07:00:53.607Z,11.41
2018-11-04T07:03:23.369Z,11.44
2018-11-04T07:05:53.415Z,11.51
2018-11-04T07:08:23.450Z,11.54
2018-11-04T07:10:53.475Z,11.27
2018-11-04T07:13:23.334Z,11.32
2018-11-04T07:15:53.272Z,11.35
2018-11-04T07:18:23.135Z,11.27
2018-11-04T07:20:52.961Z,11.33
2018-11-04T07:23:23.028Z,11.54
2018-11-04T07:25:52.931Z,11.68
2018-11-04T07:28:22.852Z,11.69
2018-11-04T07:30:52.876Z,11.59
2018-11-04T07:33:22.615Z,11.60
2018-11-04T07:35:52.578Z,11.68
2018-11-04T07:38:22.403Z,11.76
2018-11-04T07:40:52.153Z,11.56
2018-11-04T07:43:21.927Z,11.62
2018-11-04T07:45:51.659Z,11.72
2018-11-04T07:48:21.485Z,11.43
2018-11-04T07:50:51.234Z,11.44
2018-11-04T07:53:20.903Z,11.62
2018-11-04T07:55:50.680Z,11.59
2018-11-04T07:58:20.493Z,11.38
2018-11-04T08:00:50.260Z,11.37
2018-11-04T08:03:20.021Z,11.37
2018-11-04T08:05:49.914Z,11.50
2018-11-04T08:08:19.711Z,11.59
2018-11-04T08:10:49.535Z,11.63
2018-11-04T08:13:19.302Z,11.74
2018-11-04T08:15:49.167Z,11.87
2018-11-04T08:18:18.939Z,11.93
2018-11-04T08:20:48.964Z,11.66
2018-11-04T08:23:18.735Z,11.78
2018-11-04T08:25:48.496Z,11.62
2018-11-04T08:28:19.067Z,11.58
2018-11-04T08:30:48.804Z,11.47
2018-11-04T08:33:18.657Z,11.63
2018-11-04T08:35:48.379Z,11.80
2018-11-04T08:38:18.163Z,11.85
2018-11-04T08:40:47.934Z,12.06
2018-11-04T08:43:17.757Z,11.75
2018-11-04T08:45:47.779Z,11.53
2018-11-04T08:48:17.473Z,11.81
2018-11-04T08:50:47.251Z,12.03
2018-11-04T08:53:17.008Z,11.92
2018-11-04T08:55:46.859Z,12.21
2018-11-04T08:58:16.662Z,12.23
2018-11-04T09:00:46.465Z,11.92
2018-11-04T09:03:16.367Z,11.71
2018-11-04T09:05:46.124Z,11.99
2018-11-04T09:08:15.912Z,12.06
2018-11-04T09:10:45.737Z,12.11
2018-11-04T09:13:15.808Z,11.88
2018-11-04T09:15:45.815Z,12.05
2018-11-04T09:18:15.589Z,12.30
2018-11-04T09:20:45.523Z,12.28
2018-11-04T09:23:15.534Z,12.37
2018-11-04T09:25:45.715Z,12.29
2018-11-04T09:28:15.532Z,11.68
2018-11-04T09:30:45.565Z,12.00
2018-11-04T09:33:15.512Z,12.22
2018-11-04T09:35:45.629Z,12.36
2018-11-04T09:38:15.367Z,12.17
2018-11-04T09:40:45.063Z,12.05
2018-11-04T09:43:14.823Z,11.92
2018-11-04T09:45:44.861Z,11.78
2018-11-04T09:48:14.900Z,11.92
2018-11-04T09:50:44.640Z,12.17
2018-11-04T09:53:14.419Z,12.15
2018-11-04T09:55:44.225Z,12.47
2018-11-04T09:58:14.891Z,12.63
2018-11-04T10:00:44.659Z,12.20
2018-11-04T10:03:14.416Z,12.58
2018-11-04T10:05:44.187Z,12.80
2018-11-04T10:08:13.587Z,12.80
2018-11-04T10:10:43.641Z,12.96
2018-11-04T10:13:13.429Z,12.56
2018-11-04T10:15:43.157Z,12.34
2018-11-04T10:18:12.901Z,12.24
2018-11-04T10:20:42.579Z,12.13
2018-11-04T10:23:12.185Z,11.94
2018-11-04T10:25:42.026Z,12.23
2018-11-04T10:28:11.654Z,12.51
2018-11-04T10:30:41.096Z,12.64
2018-11-04T10:33:10.944Z,12.23
2018-11-04T10:35:40.778Z,12.22
2018-11-04T10:38:10.738Z,12.56
2018-11-04T10:40:40.182Z,12.64
2018-11-04T10:43:09.617Z,12.44
2018-11-04T10:45:38.991Z,12.62
2018-11-04T10:48:08.467Z,12.16
2018-11-04T10:50:38.301Z,12.06
2018-11-04T10:53:07.786Z,12.40
2018-11-04T10:55:37.460Z,12.77
2018-11-04T10:58:07.267Z,12.57
2018-11-04T11:00:41.898Z,13.00
2018-11-04T11:03:11.297Z,12.98
2018-11-04T11:05:41.434Z,13.22
2018-11-04T11:08:11.294Z,13.50
2018-11-04T11:10:40.909Z,13.62
2018-11-04T11:13:10.536Z,13.11
2018-11-04T11:15:40.474Z,13.36
2018-11-04T11:18:09.925Z,12.91
2018-11-04T11:20:39.792Z,12.78
2018-11-04T11:23:09.286Z,12.98
2018-11-04T11:25:38.929Z,13.19
2018-11-04T11:28:08.386Z,13.31
2018-11-04T11:30:37.834Z,13.55
2018-11-04T11:33:07.380Z,13.87
2018-11-04T11:35:36.914Z,14.18
2018-11-04T11:38:07.237Z,14.31
2018-11-04T11:40:36.580Z,14.28
2018-11-04T11:43:07.016Z,13.74
2018-11-04T11:45:36.547Z,13.88
2018-11-04T11:48:07.768Z,13.28
2018-11-04T11:50:37.418Z,13.21
2018-11-04T11:53:07.339Z,13.49
2018-11-04T11:55:37.319Z,13.66
2018-11-04T11:58:07.219Z,13.45
2018-11-04T12:00:37.127Z,13.36
2018-11-04T12:03:06.893Z,13.76
2018-11-04T12:05:36.502Z,13.72
2018-11-04T12:08:06.365Z,13.21
2018-11-04T12:10:36.258Z,13.40
2018-11-04T12:13:06.159Z,13.73
2018-11-04T12:15:35.625Z,14.00
2018-11-04T12:18:05.302Z,13.67
2018-11-04T12:20:34.761Z,13.71
2018-11-04T12:23:06.741Z,13.52
2018-11-04T12:25:36.825Z,13.87
2018-11-04T12:28:06.543Z,13.80
2018-11-04T12:30:36.581Z,14.13
2018-11-04T12:33:06.414Z,14.09
2018-11-04T12:35:35.915Z,13.54
2018-11-04T12:38:05.433Z,13.76
2018-11-04T12:40:35.308Z,14.36
2018-11-04T12:43:05.096Z,14.69
2018-11-04T12:45:34.683Z,14.80
2018-11-04T12:48:04.888Z,14.89
2018-11-04T12:50:34.470Z,14.23
2018-11-04T12:53:04.216Z,13.94
2018-11-04T12:55:34.125Z,13.78
2018-11-04T12:58:03.693Z,13.23
2018-11-04T13:00:33.441Z,13.43
2018-11-04T13:03:03.341Z,13.91
2018-11-04T13:05:33.300Z,13.82
2018-11-04T13:08:02.816Z,13.53
2018-11-04T13:10:32.677Z,14.05
2018-11-04T13:13:02.147Z,14.28
2018-11-04T13:15:31.654Z,14.16
2018-11-04T13:18:01.254Z,13.87
2018-11-04T13:20:30.769Z,13.42
2018-11-04T13:23:00.340Z,13.56
2018-11-04T13:25:29.744Z,13.33
2018-11-04T13:27:59.239Z,13.39
2018-11-04T13:30:28.744Z,13.17
2018-11-04T13:32:58.201Z,13.03
2018-11-04T13:35:28.240Z,13.56
2018-11-04T13:37:57.675Z,13.73
2018-11-04T13:40:27.194Z,14.14
2018-11-04T13:42:56.832Z,14.44
2018-11-04T13:45:26.721Z,14.66
2018-11-04T13:47:56.198Z,14.33
2018-11-04T13:50:25.708Z,14.42
2018-11-04T13:52:55.588Z,14.58
2018-11-04T13:55:25.123Z,13.86
2018-11-04T13:57:54.628Z,13.31
2018-11-04T14:00:24.510Z,13.14
2018-11-04T14:02:54.007Z,13.14
2018-11-04T14:05:23.424Z,13.28
2018-11-04T14:07:53.726Z,13.55
2018-11-04T14:10:23.928Z,13.58
2018-11-04T14:12:55.357Z,13.65
2018-11-04T14:15:30.862Z,13.40
2018-11-04T14:18:04.562Z,13.01
2018-11-04T14:20:37.364Z,13.22
2018-11-04T14:23:08.536Z,12.83
2018-11-04T14:28:26.626Z,12.63
2018-11-04T14:31:30.964Z,12.64
2018-11-04T14:37:49.872Z,13.00
2018-11-04T14:40:29.558Z,12.95
2018-11-04T14:43:14.072Z,12.66
2018-11-04T14:45:48.910Z,12.43
2018-11-04T14:48:18.592Z,12.53
2018-11-04T14:50:48.198Z,12.21
2018-11-04T14:53:17.733Z,12.05
2018-11-04T14:55:47.920Z,12.16
2018-11-04T14:58:18.099Z,12.26
2018-11-04T15:00:47.734Z,12.17
2018-11-04T15:03:17.770Z,12.03
2018-11-04T15:05:49.936Z,12.06
2018-11-04T15:08:19.608Z,12.05
2018-11-04T15:10:49.118Z,12.00
2018-11-04T15:13:18.719Z,11.97
2018-11-04T15:15:51.917Z,11.93
2018-11-04T15:18:41.168Z,11.73
2018-11-04T15:21:11.897Z,11.90
2018-11-04T15:23:42.290Z,11.94
2018-11-04T15:26:13.309Z,12.02
2018-11-04T15:28:43.064Z,12.11
2018-11-04T15:31:12.948Z,12.03
2018-11-04T15:33:46.151Z,11.99
2018-11-04T15:36:16.667Z,12.12
2018-11-04T15:38:46.449Z,12.18
2018-11-04T15:41:16.239Z,12.09
2018-11-04T15:43:48.216Z,12.06
2018-11-04T15:46:17.896Z,12.08
2018-11-04T15:48:47.583Z,12.11
2018-11-04T15:51:17.536Z,12.02
2018-11-04T15:53:47.280Z,11.91
2018-11-04T15:56:17.375Z,11.92
2018-11-04T15:58:46.887Z,11.92
2018-11-04T16:01:16.424Z,11.95
2018-11-04T16:03:47.567Z,11.98
2018-11-04T16:06:18.377Z,11.93
2018-11-04T16:08:49.819Z,11.87
2018-11-04T16:11:24.488Z,11.94
2018-11-04T16:13:54.495Z,11.99
2018-11-04T16:16:24.363Z,11.88
2018-11-04T16:18:55.043Z,11.98
2018-11-04T16:21:26.286Z,11.86
2018-11-04T16:23:56.669Z,11.95
2018-11-04T16:26:26.869Z,11.96
2018-11-04T16:28:57.970Z,11.97
2018-11-04T16:31:28.238Z,11.87
2018-11-04T16:33:58.045Z,11.86
2018-11-04T16:36:28.573Z,11.95
2018-11-04T16:38:59.125Z,11.90
2018-11-04T16:41:28.905Z,11.90
2018-11-04T16:43:59.180Z,11.87
2018-11-04T16:46:29.325Z,11.92
2018-11-04T16:48:59.267Z,11.99
2018-11-04T16:51:28.943Z,11.98
2018-11-04T16:53:58.543Z,12.03
2018-11-04T16:56:28.323Z,12.02
2018-11-04T16:58:57.977Z,11.95
2018-11-04T17:01:28.149Z,11.88
2018-11-04T17:03:58.404Z,11.86
2018-11-04T17:06:35.096Z,11.88
2018-11-04T17:09:06.003Z,11.97
2018-11-04T17:11:36.958Z,12.00
2018-11-04T17:14:07.176Z,11.96
2018-11-04T17:16:37.543Z,12.04
2018-11-04T17:19:19.233Z,12.13
2018-11-04T17:21:51.341Z,12.11
2018-11-04T17:24:21.803Z,12.24
2018-11-04T17:26:53.359Z,12.35
2018-11-04T17:29:24.251Z,12.33
2018-11-04T17:31:54.507Z,12.37
2018-11-04T17:34:25.148Z,12.30
2018-11-04T17:36:55.446Z,12.19
2018-11-04T17:39:25.857Z,12.00
2018-11-04T17:41:56.234Z,11.97
2018-11-04T17:44:26.668Z,12.04
2018-11-04T17:46:59.599Z,12.05
2018-11-04T17:49:30.572Z,12.13
2018-11-04T17:52:00.845Z,12.17
2018-11-04T17:54:31.235Z,12.15
2018-11-04T17:57:01.738Z,12.05
2018-11-04T17:59:32.131Z,12.03
2018-11-04T18:02:03.929Z,11.99
2018-11-04T18:04:35.121Z,12.05
2018-11-04T18:07:11.730Z,12.04
2018-11-04T18:09:42.527Z,12.11
2018-11-04T18:12:13.037Z,12.12
2018-11-04T18:14:43.452Z,12.12
2018-11-04T18:17:13.539Z,12.05
2018-11-04T18:19:43.693Z,11.95
2018-11-04T18:22:13.867Z,12.00
2018-11-04T18:24:45.560Z,11.92
2018-11-04T18:27:16.376Z,11.92
2018-11-04T18:29:47.530Z,11.93
2018-11-04T18:32:17.936Z,11.86
2018-11-04T18:34:47.882Z,11.87
2018-11-04T18:37:18.074Z,11.86
2018-11-04T18:39:48.834Z,11.70
2018-11-04T18:42:19.264Z,11.63
2018-11-04T18:44:49.821Z,11.69
2018-11-04T18:47:20.298Z,11.72
2018-11-04T18:49:50.497Z,11.66
2018-11-04T18:52:20.754Z,11.70
2018-11-04T18:54:50.995Z,11.69
2018-11-04T18:57:22.270Z,11.81
2018-11-04T18:59:52.809Z,11.75
2018-11-04T19:02:27.027Z,11.80
2018-11-04T19:04:59.438Z,11.60
2018-11-04T19:07:31.485Z,11.59
2018-11-04T19:10:17.850Z,11.54
2018-11-04T19:12:48.257Z,11.59
2018-11-04T19:15:20.525Z,11.62
2018-11-04T19:17:50.435Z,11.68
2018-11-04T19:20:20.962Z,11.82
2018-11-04T19:22:51.170Z,11.79
2018-11-04T19:25:21.191Z,11.81
2018-11-04T19:27:51.548Z,11.83
2018-11-04T19:30:21.604Z,11.79
2018-11-04T19:32:51.842Z,11.74
2018-11-04T19:35:21.786Z,11.78
2018-11-04T19:37:51.997Z,11.69
2018-11-04T19:40:22.129Z,11.70
2018-11-04T19:42:52.355Z,11.68
2018-11-04T19:45:27.723Z,11.65
2018-11-04T19:47:58.616Z,11.66
2018-11-04T19:50:32.759Z,11.73
2018-11-04T19:53:26.580Z,11.76
2018-11-04T19:56:18.026Z,11.75
2018-11-04T20:05:14.813Z,11.88
2018-11-04T20:28:25.608Z,11.77
2018-11-04T20:31:01.278Z,11.84
2018-11-04T20:33:32.896Z,11.86
2018-11-04T20:36:03.759Z,11.78
2018-11-04T20:38:39.568Z,11.73
2018-11-04T20:41:14.718Z,11.77
2018-11-04T20:43:44.844Z,11.77
2018-11-04T20:46:15.237Z,11.66
2018-11-04T20:48:50.986Z,11.73
2018-11-04T20:51:21.284Z,11.79
2018-11-04T20:53:51.620Z,11.75
2018-11-04T20:56:27.000Z,11.85
2018-11-04T20:58:57.216Z,11.85
2018-11-04T21:01:27.723Z,11.72
2018-11-04T21:03:57.998Z,11.77
2018-11-04T21:06:28.243Z,11.77
2018-11-04T21:08:58.820Z,11.75
2018-11-04T21:11:28.976Z,11.75
2018-11-04T21:14:05.831Z,11.77
2018-11-04T21:16:36.443Z,11.69
2018-11-04T21:19:06.596Z,11.67
2018-11-04T21:21:36.621Z,11.64
2018-11-04T21:24:06.552Z,11.61
2018-11-04T21:26:36.509Z,11.67
2018-11-04T21:29:06.633Z,11.52
2018-11-04T21:31:36.489Z,11.58
2018-11-04T21:34:06.825Z,11.63
2018-11-04T21:36:36.733Z,11.66
2018-11-04T21:39:09.923Z,11.71
2018-11-04T21:41:39.770Z,11.60
2018-11-04T21:44:09.831Z,11.68
2018-11-04T21:46:39.603Z,11.74
2018-11-04T21:49:09.598Z,11.77
2018-11-04T21:51:39.580Z,11.35
2018-11-04T21:54:09.585Z,11.65
2018-11-04T21:56:40.088Z,11.63
2018-11-04T21:59:09.853Z,11.62
2018-11-04T22:01:39.928Z,11.65
2018-11-04T22:04:09.961Z,11.70
2018-11-04T22:06:39.800Z,11.73
2018-11-04T22:09:10.733Z,11.74
2018-11-04T22:11:40.732Z,11.74
2018-11-04T22:14:10.659Z,11.71
2018-11-04T22:16:40.721Z,11.69
2018-11-04T22:19:10.630Z,11.63
2018-11-04T22:21:40.474Z,11.63
2018-11-04T22:24:10.432Z,11.65
2018-11-04T22:26:40.346Z,11.70
2018-11-04T22:29:10.313Z,11.69
2018-11-04T22:31:40.277Z,11.66
2018-11-04T22:34:10.494Z,11.75
2018-11-04T22:36:40.484Z,11.80
2018-11-04T22:39:10.481Z,11.77
2018-11-04T22:41:40.402Z,11.78
2018-11-04T22:44:10.217Z,11.81
2018-11-04T22:46:40.702Z,11.82
2018-11-04T22:49:10.691Z,11.75
2018-11-04T22:51:40.509Z,11.76
2018-11-04T22:54:10.436Z,11.75
2018-11-04T22:56:40.282Z,11.82
2018-11-04T22:59:10.059Z,11.78
2018-11-04T23:01:40.102Z,11.78
2018-11-04T23:04:09.980Z,11.78
2018-11-04T23:06:39.696Z,11.69
2018-11-04T23:09:10.899Z,11.74
2018-11-04T23:11:40.887Z,11.80
2018-11-04T23:14:10.846Z,11.81
2018-11-04T23:16:41.665Z,11.86
2018-11-04T23:19:11.529Z,11.79
2018-11-04T23:21:41.345Z,11.72
2018-11-04T23:24:11.193Z,11.72
2018-11-04T23:26:41.317Z,11.71
2018-11-04T23:29:11.325Z,11.78
2018-11-04T23:31:41.153Z,11.66
2018-11-04T23:34:11.035Z,11.60
2018-11-04T23:36:40.836Z,11.57
2018-11-04T23:39:11.312Z,11.42
2018-11-04T23:41:41.720Z,11.38
2018-11-04T23:44:11.589Z,11.27
2018-11-04T23:46:41.386Z,11.19
2018-11-04T23:49:11.426Z,11.24
2018-11-04T23:51:41.341Z,11.28
2018-11-04T23:54:11.760Z,11.31
2018-11-04T23:56:41.652Z,11.34
2018-11-04T23:59:11.548Z,11.41
